createdAt,value
2019-04-03T00:01:40.634Z,11.60
2019-04-03T00:04:09.187Z,11.70
2019-04-03T00:06:37.763Z,11.60
2019-04-03T00:09:07.581Z,11.50
2019-04-03T00:11:39.379Z,11.50
2019-04-03T00:14:06.992Z,11.50
2019-04-03T00:16:35.499Z,11.50
2019-04-03T00:19:04.087Z,11.60
2019-04-03T00:21:32.617Z,11.70
2019-04-03T00:24:01.070Z,11.70
2019-04-03T00:26:30.741Z,11.70
2019-04-03T00:28:59.869Z,11.80
2019-04-03T00:31:28.433Z,11.80
2019-04-03T00:33:56.882Z,11.80
2019-04-03T00:36:26.843Z,11.80
2019-04-03T00:38:55.461Z,11.70
2019-04-03T00:41:24.805Z,11.90
2019-04-03T00:43:54.513Z,11.80
2019-04-03T00:46:24.360Z,11.80
2019-04-03T00:48:55.178Z,11.80
2019-04-03T00:51:23.872Z,11.80
2019-04-03T00:53:52.446Z,11.80
2019-04-03T00:56:20.882Z,11.70
2019-04-03T00:58:49.439Z,11.80
2019-04-03T01:01:17.950Z,11.70
2019-04-03T01:03:46.457Z,11.80
2019-04-03T01:06:15.180Z,11.80
2019-04-03T01:08:43.646Z,11.90
2019-04-03T01:11:12.078Z,11.90
2019-04-03T01:13:40.562Z,11.80
2019-04-03T01:16:09.046Z,11.80
2019-04-03T01:18:37.607Z,11.80
2019-04-03T01:21:06.933Z,11.80
2019-04-03T01:23:37.789Z,11.90
2019-04-03T01:26:05.829Z,11.70
2019-04-03T01:28:34.322Z,11.80
2019-04-03T01:31:02.940Z,11.90
2019-04-03T01:33:31.454Z,11.80
2019-04-03T01:35:59.976Z,11.80
2019-04-03T01:38:28.559Z,11.80
2019-04-03T01:40:57.227Z,11.80
2019-04-03T01:43:25.751Z,11.80
2019-04-03T01:45:56.576Z,11.80
2019-04-03T01:48:24.527Z,11.90
2019-04-03T01:50:53.188Z,11.90
2019-04-03T01:53:21.661Z,11.90
2019-04-03T01:55:50.158Z,11.90
2019-04-03T01:58:18.628Z,11.90
2019-04-03T02:00:47.181Z,11.90
2019-04-03T02:03:15.750Z,11.90
2019-04-03T02:05:44.235Z,11.80
2019-04-03T02:08:14.422Z,11.90
2019-04-03T02:10:43.166Z,11.90
2019-04-03T02:13:11.817Z,11.90
2019-04-03T02:15:40.244Z,11.80
2019-04-03T02:18:08.781Z,11.80
2019-04-03T02:20:37.221Z,11.70
2019-04-03T02:23:05.791Z,11.60
2019-04-03T02:25:34.863Z,11.60
2019-04-03T02:28:04.411Z,11.70
2019-04-03T02:30:33.266Z,11.70
2019-04-03T02:33:01.777Z,11.60
2019-04-03T02:35:30.272Z,11.60
2019-04-03T02:37:58.759Z,11.70
2019-04-03T02:40:31.204Z,11.70
2019-04-03T02:42:57.493Z,11.70
2019-04-03T02:45:26.109Z,11.70
2019-04-03T02:47:54.612Z,11.80
2019-04-03T02:50:24.760Z,11.80
2019-04-03T02:52:56.807Z,11.70
2019-04-03T02:55:23.996Z,11.60
2019-04-03T02:57:52.547Z,11.70
2019-04-03T03:00:21.010Z,11.70
2019-04-03T03:02:49.580Z,11.60
2019-04-03T03:05:18.149Z,11.60
2019-04-03T03:07:46.785Z,11.70
2019-04-03T03:10:18.614Z,11.70
2019-04-03T03:12:45.418Z,11.70
2019-04-03T03:15:14.603Z,11.60
2019-04-03T03:17:43.250Z,11.70
2019-04-03T03:20:12.160Z,11.70
2019-04-03T03:22:41.109Z,11.70
2019-04-03T03:25:09.715Z,11.70
2019-04-03T03:27:40.199Z,11.80
2019-04-03T03:30:30.806Z,11.70
2019-04-03T03:32:39.058Z,11.80
2019-04-03T03:35:14.185Z,11.70
2019-04-03T03:37:38.743Z,11.70
2019-04-03T03:40:07.326Z,11.70
2019-04-03T03:42:35.910Z,11.70
2019-04-03T03:45:04.611Z,11.70
2019-04-03T03:47:35.211Z,11.70
2019-04-03T03:50:05.046Z,11.60
2019-04-03T03:52:36.130Z,11.70
2019-04-03T03:55:03.894Z,11.70
2019-04-03T03:57:32.421Z,11.70
2019-04-03T04:00:02.908Z,11.80
2019-04-03T04:02:31.553Z,11.70
2019-04-03T04:05:00.320Z,11.80
2019-04-03T04:07:29.028Z,11.60
2019-04-03T04:09:57.615Z,11.70
2019-04-03T04:12:26.498Z,11.70
2019-04-03T04:14:56.875Z,11.70
2019-04-03T04:17:25.661Z,11.80
2019-04-03T04:19:54.310Z,11.80
2019-04-03T04:22:26.828Z,11.70
2019-04-03T04:24:54.566Z,11.60
2019-04-03T04:27:23.007Z,11.60
2019-04-03T04:29:51.668Z,11.60
2019-04-03T04:32:20.170Z,11.60
2019-04-03T04:34:50.035Z,11.50
2019-04-03T04:37:18.750Z,11.50
2019-04-03T04:39:47.273Z,11.50
2019-04-03T04:42:15.698Z,11.40
2019-04-03T04:44:44.481Z,11.30
2019-04-03T04:47:15.314Z,11.20
2019-04-03T04:49:43.273Z,11.20
2019-04-03T04:52:11.796Z,11.20
2019-04-03T04:54:42.779Z,11.30
2019-04-03T04:57:10.621Z,11.20
2019-04-03T04:59:39.102Z,11.20
2019-04-03T05:02:07.710Z,11.20
2019-04-03T05:04:36.190Z,11.40
2019-04-03T05:07:04.690Z,11.50
2019-04-03T05:09:34.880Z,11.50
2019-04-03T05:12:03.336Z,11.60
2019-04-03T05:14:31.821Z,11.50
2019-04-03T05:17:00.274Z,11.60
2019-04-03T05:19:28.873Z,11.60
2019-04-03T05:21:57.355Z,11.60
2019-04-03T05:24:28.455Z,11.60
2019-04-03T05:26:56.164Z,11.70
2019-04-03T05:29:25.036Z,11.60
2019-04-03T05:31:53.718Z,11.60
2019-04-03T05:34:22.434Z,11.60
2019-04-03T05:36:51.034Z,11.50
2019-04-03T05:39:19.676Z,11.50
2019-04-03T05:41:48.120Z,11.30
2019-04-03T05:44:16.682Z,11.30
2019-04-03T05:46:45.318Z,11.20
2019-04-03T05:49:15.464Z,11.20
2019-04-03T05:51:44.026Z,11.10
2019-04-03T05:54:14.216Z,11.10
2019-04-03T05:56:43.345Z,11.20
2019-04-03T05:59:12.076Z,11.30
2019-04-03T06:01:42.644Z,11.30
2019-04-03T06:04:10.819Z,11.50
2019-04-03T06:06:39.454Z,11.40
2019-04-03T06:09:08.037Z,11.50
2019-04-03T06:11:38.047Z,11.60
2019-04-03T06:14:08.573Z,11.60
2019-04-03T06:16:36.866Z,11.50
2019-04-03T06:19:06.891Z,11.60
2019-04-03T06:21:35.945Z,11.40
2019-04-03T06:24:04.458Z,11.40
2019-04-03T06:26:33.119Z,11.40
2019-04-03T06:29:01.890Z,11.60
2019-04-03T06:31:30.498Z,11.60
2019-04-03T06:33:59.193Z,11.60
2019-04-03T06:36:27.763Z,11.60
2019-04-03T06:38:57.154Z,11.70
2019-04-03T06:41:25.909Z,11.60
2019-04-03T06:43:54.690Z,11.50
2019-04-03T06:46:23.320Z,11.40
2019-04-03T06:48:51.924Z,11.30
2019-04-03T06:51:20.340Z,11.20
2019-04-03T06:53:48.942Z,11.30
2019-04-03T06:56:17.486Z,11.30
2019-04-03T06:58:46.018Z,11.40
2019-04-03T07:01:14.541Z,11.50
2019-04-03T07:03:45.170Z,11.60
2019-04-03T07:06:13.764Z,11.70
2019-04-03T07:08:48.420Z,11.70
2019-04-03T07:11:23.339Z,11.60
2019-04-03T07:13:47.452Z,11.60
2019-04-03T07:16:16.061Z,11.70
2019-04-03T07:18:44.808Z,11.60
2019-04-03T07:21:13.246Z,11.70
2019-04-03T07:23:41.767Z,11.60
2019-04-03T07:26:10.582Z,11.40
2019-04-03T07:28:41.630Z,11.50
2019-04-03T07:31:09.605Z,11.50
2019-04-03T07:33:38.273Z,11.30
2019-04-03T07:36:06.914Z,11.20
2019-04-03T07:38:35.538Z,11.30
2019-04-03T07:41:04.011Z,11.10
2019-04-03T07:43:32.654Z,11.00
2019-04-03T07:46:01.708Z,11.10
2019-04-03T07:48:33.070Z,11.10
2019-04-03T07:51:01.373Z,11.20
2019-04-03T07:53:29.884Z,11.50
2019-04-03T07:55:58.547Z,11.60
2019-04-03T07:58:27.148Z,11.80
2019-04-03T08:00:55.640Z,12.00
2019-04-03T08:03:24.384Z,12.20
2019-04-03T08:05:55.876Z,12.30
2019-04-03T08:08:23.348Z,12.30
2019-04-03T08:10:51.813Z,12.60
2019-04-03T08:13:20.462Z,12.60
2019-04-03T08:15:48.946Z,12.50
2019-04-03T08:18:20.653Z,12.50
2019-04-03T08:20:47.710Z,12.60
2019-04-03T08:23:16.469Z,12.70
2019-04-03T08:25:48.390Z,12.80
2019-04-03T08:28:15.132Z,12.50
2019-04-03T08:30:43.715Z,12.50
2019-04-03T08:33:17.574Z,12.50
2019-04-03T08:35:43.085Z,12.50
2019-04-03T08:38:14.600Z,12.30
2019-04-03T08:40:45.974Z,12.40
2019-04-03T08:43:14.688Z,12.50
2019-04-03T08:45:43.752Z,12.60
2019-04-03T08:48:12.796Z,12.00
2019-04-03T08:50:41.246Z,11.50
2019-04-03T08:53:09.900Z,11.10
2019-04-03T08:55:38.886Z,11.00
2019-04-03T08:58:07.819Z,10.90
2019-04-03T09:00:37.141Z,10.70
2019-04-03T09:03:06.555Z,10.80
2019-04-03T09:05:35.263Z,10.80
2019-04-03T09:08:04.336Z,10.90
2019-04-03T09:10:36.534Z,10.90
2019-04-03T09:13:16.082Z,11.00
2019-04-03T09:15:33.695Z,11.00
2019-04-03T09:18:05.551Z,11.10
2019-04-03T09:20:34.904Z,11.20
2019-04-03T09:23:02.915Z,11.30
2019-04-03T09:25:32.406Z,11.00
2019-04-03T09:28:01.138Z,11.20
2019-04-03T09:30:29.648Z,11.20
2019-04-03T09:32:59.946Z,11.30
2019-04-03T09:35:28.269Z,11.40
2019-04-03T09:37:56.945Z,11.60
2019-04-03T09:40:25.747Z,12.00
2019-04-03T09:42:54.441Z,12.30
2019-04-03T09:45:23.096Z,12.60
2019-04-03T09:47:51.655Z,13.20
2019-04-03T09:50:22.048Z,14.10
2019-04-03T09:52:54.121Z,14.80
2019-04-03T09:55:22.209Z,15.50
2019-04-03T09:57:53.278Z,15.60
2019-04-03T10:00:21.934Z,15.10
2019-04-03T10:02:51.547Z,14.60
2019-04-03T10:05:20.663Z,14.40
2019-04-03T10:07:49.363Z,14.10
2019-04-03T10:10:18.182Z,13.80
2019-04-03T10:12:48.026Z,13.60
2019-04-03T10:15:18.359Z,13.50
2019-04-03T10:17:48.821Z,13.50
2019-04-03T10:20:18.359Z,13.40
2019-04-03T10:22:49.061Z,13.40
2019-04-03T10:25:17.620Z,13.30
2019-04-03T10:27:46.089Z,13.00
2019-04-03T10:30:15.839Z,12.80
2019-04-03T10:32:44.605Z,12.70
2019-04-03T10:35:13.186Z,12.60
2019-04-03T10:37:41.629Z,12.50
2019-04-03T10:40:10.335Z,12.50
2019-04-03T10:42:39.125Z,12.40
2019-04-03T10:45:09.219Z,12.70
2019-04-03T10:47:43.119Z,12.80
2019-04-03T10:50:08.336Z,12.80
2019-04-03T10:52:36.918Z,12.90
2019-04-03T10:55:06.940Z,12.90
2019-04-03T10:57:35.659Z,13.00
2019-04-03T11:00:09.201Z,13.10
2019-04-03T11:02:37.814Z,13.20
2019-04-03T11:05:08.126Z,13.20
2019-04-03T11:07:36.847Z,13.30
2019-04-03T11:10:07.592Z,13.30
2019-04-03T11:12:38.089Z,13.40
2019-04-03T11:15:10.839Z,13.20
2019-04-03T11:17:38.649Z,13.20
2019-04-03T11:20:10.951Z,13.10
2019-04-03T11:22:42.182Z,13.10
2019-04-03T11:25:14.773Z,13.20
2019-04-03T11:27:44.391Z,13.30
2019-04-03T11:30:16.950Z,13.70
2019-04-03T11:32:43.708Z,14.60
2019-04-03T11:35:14.032Z,15.50
2019-04-03T11:37:45.140Z,16.40
2019-04-03T11:40:13.867Z,17.00
2019-04-03T11:42:42.513Z,17.10
2019-04-03T11:45:11.190Z,16.70
2019-04-03T11:47:39.783Z,16.10
2019-04-03T11:50:10.150Z,15.70
2019-04-03T11:52:39.012Z,15.40
2019-04-03T11:55:10.924Z,15.20
2019-04-03T11:57:38.890Z,15.20
2019-04-03T12:00:12.817Z,15.20
2019-04-03T12:02:43.983Z,15.10
2019-04-03T12:05:13.176Z,15.30
2019-04-03T12:07:42.230Z,15.40
2019-04-03T12:10:11.346Z,15.40
2019-04-03T12:12:42.081Z,15.10
2019-04-03T12:15:10.790Z,15.10
2019-04-03T12:17:39.635Z,15.20
2019-04-03T12:20:09.310Z,15.00
2019-04-03T12:22:38.044Z,15.00
2019-04-03T12:25:06.602Z,15.00
2019-04-03T12:27:36.317Z,15.00
2019-04-03T12:30:08.762Z,14.80
2019-04-03T12:32:42.939Z,14.80
2019-04-03T12:35:09.804Z,14.50
2019-04-03T12:37:38.155Z,14.40
2019-04-03T12:40:07.351Z,14.50
2019-04-03T12:42:35.939Z,14.60
2019-04-03T12:45:06.413Z,14.70
2019-04-03T12:47:35.041Z,14.90
2019-04-03T12:50:04.632Z,15.00
2019-04-03T12:52:33.322Z,15.00
2019-04-03T12:55:05.208Z,15.10
2019-04-03T12:57:38.944Z,14.90
2019-04-03T13:00:10.584Z,14.50
2019-04-03T13:02:39.447Z,14.40
2019-04-03T13:05:08.189Z,14.20
2019-04-03T13:07:37.461Z,14.20
2019-04-03T13:10:08.516Z,14.30
2019-04-03T13:12:37.360Z,14.40
2019-04-03T13:15:09.393Z,14.40
2019-04-03T13:17:38.259Z,14.50
2019-04-03T13:20:07.308Z,14.50
2019-04-03T13:22:36.583Z,14.30
2019-04-03T13:25:08.651Z,14.40
2019-04-03T13:27:37.589Z,14.50
2019-04-03T13:30:11.467Z,14.70
2019-04-03T13:32:38.665Z,14.80
2019-04-03T13:35:07.870Z,14.80
2019-04-03T13:37:36.358Z,14.90
2019-04-03T13:40:07.067Z,14.90
2019-04-03T13:42:36.515Z,14.80
2019-04-03T13:45:08.471Z,14.60
2019-04-03T13:47:39.762Z,14.70
2019-04-03T13:50:08.413Z,14.80
2019-04-03T13:52:41.435Z,15.00
2019-04-03T13:55:07.575Z,15.00
2019-04-03T13:57:36.318Z,15.00
2019-04-03T14:00:17.156Z,15.10
2019-04-03T14:02:37.416Z,14.80
2019-04-03T14:05:07.631Z,14.60
2019-04-03T14:07:41.631Z,14.40
2019-04-03T14:10:10.941Z,14.40
2019-04-03T14:12:44.021Z,14.60
2019-04-03T14:15:11.376Z,14.70
2019-04-03T14:17:39.860Z,14.80
2019-04-03T14:20:08.625Z,14.80
2019-04-03T14:22:37.500Z,14.90
2019-04-03T14:25:17.908Z,15.00
2019-04-03T14:27:37.413Z,15.00
2019-04-03T14:30:09.772Z,15.10
2019-04-03T14:32:37.956Z,15.20
2019-04-03T14:35:34.170Z,15.20
2019-04-03T14:37:36.850Z,15.30
2019-04-03T14:40:07.077Z,15.30
2019-04-03T14:42:38.564Z,15.30
2019-04-03T14:45:07.956Z,15.20
2019-04-03T14:47:36.638Z,15.20
2019-04-03T14:50:07.171Z,15.20
2019-04-03T14:52:36.256Z,15.00
2019-04-03T14:55:17.065Z,15.10
2019-04-03T14:57:37.113Z,15.20
2019-04-03T15:00:22.997Z,15.60
2019-04-03T15:02:40.065Z,16.20
2019-04-03T15:05:11.146Z,16.60
2019-04-03T15:07:40.377Z,16.70
2019-04-03T15:10:09.559Z,16.70
2019-04-03T15:12:39.908Z,16.50
2019-04-03T15:15:08.419Z,16.30
2019-04-03T15:17:37.935Z,16.30
2019-04-03T15:20:10.493Z,16.20
2019-04-03T15:22:39.445Z,16.30
2019-04-03T15:25:08.651Z,16.20
2019-04-03T15:27:38.135Z,16.10
2019-04-03T15:30:09.895Z,15.90
2019-04-03T15:32:38.617Z,15.90
2019-04-03T15:35:07.073Z,15.90
2019-04-03T15:37:36.072Z,15.80
2019-04-03T15:40:05.715Z,15.70
2019-04-03T15:42:34.659Z,15.70
2019-04-03T15:45:03.390Z,15.60
2019-04-03T15:47:36.533Z,15.10
2019-04-03T15:50:02.131Z,14.80
2019-04-03T15:52:30.638Z,14.60
2019-04-03T15:55:00.060Z,14.20
2019-04-03T15:57:28.726Z,14.00
2019-04-03T15:59:57.944Z,13.60
2019-04-03T16:02:28.362Z,13.40
2019-04-03T16:04:58.469Z,13.20
2019-04-03T16:07:27.439Z,13.00
2019-04-03T16:09:56.225Z,13.00
2019-04-03T16:12:24.670Z,12.60
2019-04-03T16:14:53.374Z,12.50
2019-04-03T16:17:22.154Z,12.60
2019-04-03T16:19:52.468Z,12.50
2019-04-03T16:22:21.623Z,12.40
2019-04-03T16:24:53.584Z,12.40
2019-04-03T16:27:22.132Z,12.40
2019-04-03T16:29:50.795Z,12.30
2019-04-03T16:32:19.518Z,12.40
2019-04-03T16:34:48.400Z,12.30
2019-04-03T16:37:17.053Z,12.40
2019-04-03T16:39:45.598Z,12.50
2019-04-03T16:42:15.614Z,12.50
2019-04-03T16:44:44.356Z,12.50
2019-04-03T16:47:14.367Z,12.60
2019-04-03T16:49:43.194Z,12.70
2019-04-03T16:52:11.845Z,12.70
2019-04-03T16:54:44.373Z,12.70
2019-04-03T16:57:12.662Z,12.60
2019-04-03T16:59:41.522Z,12.40
2019-04-03T17:02:10.150Z,12.30
2019-04-03T17:04:38.789Z,12.20
2019-04-03T17:07:07.653Z,12.20
2019-04-03T17:09:37.798Z,12.30
2019-04-03T17:12:06.652Z,12.30
2019-04-03T17:14:35.397Z,12.30
2019-04-03T17:17:04.037Z,12.30
2019-04-03T17:19:32.837Z,12.40
2019-04-03T17:22:01.924Z,12.40
2019-04-03T17:24:41.045Z,12.50
2019-04-03T17:27:01.012Z,12.40
2019-04-03T17:29:29.522Z,12.50
2019-04-03T17:31:58.882Z,12.50
2019-04-03T17:34:27.950Z,12.50
2019-04-03T17:36:56.781Z,12.50
2019-04-03T17:39:25.398Z,12.60
2019-04-03T17:41:53.854Z,12.60
2019-04-03T17:44:22.393Z,12.80
2019-04-03T17:46:51.052Z,12.70
2019-04-03T17:49:19.663Z,12.70
2019-04-03T17:51:48.325Z,12.80
2019-04-03T17:54:16.858Z,12.70
2019-04-03T17:56:47.052Z,12.60
2019-04-03T17:59:18.144Z,12.60
2019-04-03T18:01:45.810Z,12.40
2019-04-03T18:04:14.439Z,12.40
2019-04-03T18:06:46.409Z,12.30
2019-04-03T18:09:13.800Z,12.30
2019-04-03T18:11:42.841Z,12.10
2019-04-03T18:14:11.507Z,12.10
2019-04-03T18:16:40.122Z,12.10
2019-04-03T18:19:08.596Z,12.10
2019-04-03T18:21:37.282Z,12.00
2019-04-03T18:24:05.900Z,12.00
2019-04-03T18:26:34.571Z,12.10
2019-04-03T18:29:03.171Z,12.10
2019-04-03T18:31:31.706Z,12.20
2019-04-03T18:34:00.314Z,12.10
2019-04-03T18:36:31.186Z,12.10
2019-04-03T18:38:58.902Z,12.00
2019-04-03T18:41:27.548Z,11.90
2019-04-03T18:43:56.070Z,11.80
2019-04-03T18:46:32.044Z,11.90
2019-04-03T18:49:00.870Z,12.00
2019-04-03T18:51:25.039Z,12.10
2019-04-03T18:53:53.580Z,12.00
2019-04-03T18:56:22.032Z,11.90
2019-04-03T18:58:50.645Z,11.80
2019-04-03T19:01:19.215Z,11.70
2019-04-03T19:03:47.798Z,11.70
2019-04-03T19:06:16.418Z,11.70
2019-04-03T19:08:45.094Z,11.70
2019-04-03T19:11:13.594Z,11.70
2019-04-03T19:13:44.582Z,11.70
2019-04-03T19:16:15.316Z,11.70
2019-04-03T19:18:42.516Z,11.60
2019-04-03T19:21:23.796Z,11.70
2019-04-03T19:23:49.497Z,11.70
2019-04-03T19:26:11.258Z,11.70
2019-04-03T19:28:39.744Z,11.70
2019-04-03T19:31:08.855Z,11.70
2019-04-03T19:33:37.782Z,11.70
2019-04-03T19:36:06.752Z,11.80
2019-04-03T19:38:35.847Z,11.80
2019-04-03T19:41:04.917Z,11.80
2019-04-03T19:43:33.382Z,11.70
2019-04-03T19:46:01.901Z,11.80
2019-04-03T19:48:30.907Z,11.80
2019-04-03T19:51:02.693Z,11.70
2019-04-03T19:53:29.668Z,11.60
2019-04-03T19:55:58.194Z,11.60
2019-04-03T19:58:28.904Z,11.50
2019-04-03T20:00:57.183Z,11.50
2019-04-03T20:03:25.860Z,11.10
2019-04-03T20:05:59.256Z,10.90
2019-04-03T20:08:28.031Z,10.80
2019-04-03T20:10:59.528Z,10.70
2019-04-03T20:13:28.345Z,10.60
2019-04-03T20:15:57.068Z,10.70
2019-04-03T20:18:25.929Z,10.70
2019-04-03T20:20:55.559Z,10.80
2019-04-03T20:23:24.456Z,11.00
2019-04-03T20:25:53.039Z,11.00
2019-04-03T20:28:23.656Z,11.10
2019-04-03T20:30:56.050Z,11.20
2019-04-03T20:33:24.849Z,11.30
2019-04-03T20:35:53.670Z,11.20
2019-04-03T20:38:22.204Z,11.30
2019-04-03T20:40:50.715Z,11.30
2019-04-03T20:43:19.218Z,11.30
2019-04-03T20:45:49.814Z,11.30
2019-04-03T20:48:18.182Z,11.30
2019-04-03T20:50:46.733Z,11.20
2019-04-03T20:53:17.195Z,11.20
2019-04-03T20:55:45.753Z,11.10
2019-04-03T20:58:14.452Z,11.20
2019-04-03T21:00:43.133Z,11.10
2019-04-03T21:03:13.071Z,10.90
2019-04-03T21:05:42.557Z,11.00
2019-04-03T21:08:10.963Z,10.90
2019-04-03T21:10:39.385Z,10.90
2019-04-03T21:13:08.751Z,10.90
2019-04-03T21:15:37.933Z,11.00
2019-04-03T21:18:06.436Z,10.90
2019-04-03T21:20:34.888Z,10.90
2019-04-03T21:23:03.824Z,11.10
2019-04-03T21:25:35.673Z,11.10
2019-04-03T21:28:03.184Z,11.00
2019-04-03T21:30:31.728Z,11.00
2019-04-03T21:33:00.517Z,10.90
2019-04-03T21:35:29.174Z,10.90
2019-04-03T21:37:57.697Z,10.90
2019-04-03T21:40:26.175Z,10.90
2019-04-03T21:42:57.594Z,10.90
2019-04-03T21:45:24.982Z,10.90
2019-04-03T21:47:53.457Z,10.90
2019-04-03T21:50:22.028Z,10.70
2019-04-03T21:52:53.453Z,10.80
2019-04-03T21:55:20.713Z,10.70
2019-04-03T21:57:49.186Z,10.50
2019-04-03T22:00:22.583Z,10.60
2019-04-03T22:02:51.493Z,10.30
2019-04-03T22:05:20.072Z,10.40
2019-04-03T22:07:48.524Z,10.30
2019-04-03T22:10:17.139Z,10.20
2019-04-03T22:12:45.662Z,10.00
2019-04-03T22:15:14.605Z,10.10
2019-04-03T22:17:43.776Z,10.20
2019-04-03T22:20:12.406Z,10.10
2019-04-03T22:22:40.845Z,10.20
2019-04-03T22:25:09.498Z,10.20
2019-04-03T22:27:38.007Z,10.30
2019-04-03T22:30:06.462Z,10.10
2019-04-03T22:32:35.060Z,10.20
2019-04-03T22:35:04.466Z,10.20
2019-04-03T22:37:33.250Z,10.30
2019-04-03T22:40:03.569Z,10.10
2019-04-03T22:42:31.956Z,10.20
2019-04-03T22:45:00.397Z,10.10
2019-04-03T22:47:28.874Z,10.20
2019-04-03T22:49:57.377Z,10.20
2019-04-03T22:52:25.927Z,10.10
2019-04-03T22:54:54.363Z,10.10
2019-04-03T22:57:22.819Z,10.00
2019-04-03T22:59:51.319Z,10.00
2019-04-03T23:02:19.786Z,10.10
2019-04-03T23:04:48.225Z,10.20
2019-04-03T23:07:16.798Z,10.00
2019-04-03T23:09:45.333Z,10.00
2019-04-03T23:12:13.880Z,10.00
2019-04-03T23:14:42.553Z,9.90
2019-04-03T23:17:11.985Z,9.90
2019-04-03T23:19:41.427Z,9.90
2019-04-03T23:22:10.018Z,9.90
2019-04-03T23:24:38.638Z,9.80
2019-04-03T23:27:07.296Z,9.70
2019-04-03T23:29:36.552Z,9.70
2019-04-03T23:32:05.457Z,9.80
2019-04-03T23:34:34.092Z,9.80
2019-04-03T23:37:03.042Z,9.70
2019-04-03T23:39:31.657Z,9.70
2019-04-03T23:42:00.117Z,9.70
2019-04-03T23:44:28.634Z,9.50
2019-04-03T23:46:57.258Z,9.40
2019-04-03T23:49:25.824Z,9.40
2019-04-03T23:51:54.318Z,9.40
2019-04-03T23:54:22.806Z,9.30
2019-04-03T23:56:51.350Z,9.40
2019-04-03T23:59:19.956Z,9.30
